Time;durP1;ratioP1;P1;durP2;ratioP2;P2;SDS_P1;SDS_P2;PMS_P1;PMS_P2;Temp;Humidity;BMP_temperature;BMP_pressure;BME280_temperature;BME280_humidity;BME280_pressure;Samples;Min_cycle;Max_cycle;Signal;HPM_P1;HPM_P2
2021/04/23 00:00:48;;;;;;;10.55;3.45;;;8.40;52.00;;;7.22;42.62;99128.28;5143506;27;20402;-80
2021/04/23 00:03:26;;;;;;;11.77;3.25;;;8.30;51.70;;;7.16;43.31;99130.84;5143402;27;20417;-79
2021/04/23 00:05:57;;;;;;;10.57;3.03;;;8.30;52.30;;;7.09;44.12;99117.63;5142838;27;20684;-79
2021/04/23 00:08:24;;;;;;;10.98;3.30;;;8.20;53.20;;;7.08;44.41;99125.69;5141966;27;20422;-79
2021/04/23 00:10:53;;;;;;;10.90;3.47;;;8.20;53.50;;;7.09;44.67;99138.69;5142805;27;20409;-79
2021/04/23 00:13:20;;;;;;;11.77;3.72;;;8.20;54.00;;;7.13;44.82;99137.31;5142464;27;20410;-79
2021/04/23 00:15:49;;;;;;;9.10;3.17;;;8.20;54.40;;;7.22;45.00;99141.47;5141437;27;20417;-79
2021/04/23 00:18:16;;;;;;;12.35;3.47;;;8.20;54.60;;;7.27;45.15;99139.09;5142152;27;20444;-79
2021/04/23 00:20:43;;;;;;;9.40;3.75;;;8.30;54.70;;;7.33;45.04;99140.97;5141112;27;20402;-79
2021/04/23 00:23:11;;;;;;;10.50;3.20;;;8.40;54.70;;;7.36;44.43;99143.25;5140710;27;20481;-81
2021/04/23 00:25:39;;;;;;;11.53;4.00;;;8.40;54.20;;;7.33;44.66;99146.25;5141222;27;20391;-81
2021/04/23 00:28:10;;;;;;;9.27;3.35;;;8.40;54.10;;;7.05;44.73;99144.53;5142428;27;20407;-80
2021/04/23 00:30:43;;;;;;;14.27;3.40;;;8.30;54.00;;;6.88;45.51;99138.66;5142513;27;20658;-80
2021/04/23 00:33:10;;;;;;;11.70;3.10;;;8.10;54.90;;;6.69;46.28;99144.50;5142844;27;20414;-80
2021/04/23 00:35:41;;;;;;;12.80;4.10;;;7.80;55.70;;;6.66;46.39;99144.84;5158142;27;20712;-80
2021/04/23 00:38:11;;;;;;;9.35;3.63;;;7.70;56.00;;;6.64;46.19;99146.84;5144304;27;20413;-79
2021/04/23 00:40:47;;;;;;;11.88;3.33;;;7.70;55.90;;;6.66;45.94;99143.03;5145041;27;20422;-79
2021/04/23 00:43:15;;;;;;;11.00;3.85;;;7.80;55.90;;;6.74;45.83;99150.84;5149965;27;20465;-78
2021/04/23 00:45:42;;;;;;;11.87;3.57;;;7.80;55.60;;;6.80;45.82;99144.00;5150644;27;20407;-78
2021/04/23 00:48:10;;;;;;;12.88;3.45;;;7.80;55.50;;;6.74;45.74;99147.38;5146029;27;20421;-79
2021/04/23 00:50:42;;;;;;;13.95;3.53;;;7.80;55.40;;;6.72;45.65;99144.94;5146694;27;20522;-79
2021/04/23 00:53:13;;;;;;;14.55;3.80;;;7.90;55.30;;;6.56;46.60;99147.75;5146578;27;20678;-80
2021/04/23 00:55:41;;;;;;;7.20;3.33;;;7.70;56.00;;;6.54;46.46;99145.28;5155840;27;20441;-79
2021/04/23 00:58:13;;;;;;;10.40;3.38;;;7.60;56.20;;;6.34;47.54;99151.28;5161331;27;20436;-80
2021/04/23 01:00:44;;;;;;;14.27;3.72;;;7.50;57.00;;;6.28;47.75;99152.81;5162139;27;20436;-81
2021/04/23 01:03:11;;;;;;;10.63;4.18;;;7.40;57.50;;;6.25;48.09;99142.66;5143730;27;20427;-80
2021/04/23 01:05:38;;;;;;;13.95;4.53;;;7.40;57.80;;;6.21;47.89;99154.53;5162008;27;20492;-79
2021/04/23 01:08:04;;;;;;;9.18;3.83;;;7.30;58.00;;;6.19;48.40;99146.81;5161223;27;20993;-80
2021/04/23 01:10:31;;;;;;;11.43;3.72;;;7.30;58.20;;;6.14;48.83;99143.94;5161664;27;20396;-80
2021/04/23 01:12:58;;;;;;;13.82;3.85;;;7.30;58.70;;;6.09;48.96;99146.25;5160812;27;20417;-80
2021/04/23 01:15:25;;;;;;;11.40;3.70;;;7.20;58.80;;;6.12;48.80;99156.44;5161927;27;20401;-79
2021/04/23 01:17:52;;;;;;;10.68;3.53;;;7.20;58.80;;;6.05;49.00;99147.63;5161229;27;20507;-80
2021/04/23 01:20:21;;;;;;;9.30;3.72;;;7.20;58.90;;;5.96;49.29;99148.69;5162133;27;20424;-80
2021/04/23 01:22:49;;;;;;;11.07;3.92;;;7.10;59.30;;;5.95;49.38;99149.69;5162744;27;20564;-80
2021/04/23 01:25:17;;;;;;;12.48;3.53;;;7.10;59.50;;;6.08;49.25;99141.19;5174789;27;20393;-79
2021/04/23 01:27:44;;;;;;;11.20;3.88;;;7.20;59.60;;;6.12;48.89;99147.72;5176229;27;20393;-79
2021/04/23 01:30:15;;;;;;;13.57;4.00;;;7.20;59.10;;;6.13;49.03;99141.47;5157970;27;20492;-79
2021/04/23 01:32:43;;;;;;;10.80;3.78;;;7.20;59.00;;;6.10;48.95;99132.13;5174118;27;20535;-80
2021/04/23 01:35:14;;;;;;;12.20;3.77;;;7.20;59.10;;;6.13;49.55;99134.41;5171313;27;20453;-78
2021/04/23 01:37:40;;;;;;;12.32;4.07;;;7.20;59.50;;;6.05;49.23;99139.75;5172729;27;20457;-80
2021/04/23 01:40:11;;;;;;;11.77;4.30;;;7.20;59.40;;;6.00;49.46;99136.03;5172384;27;20484;-80
2021/04/23 01:42:38;;;;;;;9.15;3.45;;;7.10;59.60;;;5.93;49.07;99140.34;5172503;27;20440;-79
2021/04/23 01:45:08;;;;;;;9.93;3.78;;;7.10;59.30;;;5.82;49.63;99142.38;5170525;27;20396;-80
2021/04/23 01:47:34;;;;;;;9.52;3.70;;;7.00;59.50;;;5.76;49.60;99142.28;5170280;27;20409;-80
2021/04/23 01:50:02;;;;;;;10.25;3.80;;;6.90;59.60;;;5.86;49.71;99149.91;5169302;27;20416;-80
2021/04/23 01:52:28;;;;;;;12.68;3.88;;;7.00;59.70;;;6.00;48.72;99152.59;5169716;27;20416;-80
2021/04/23 01:54:55;;;;;;;13.93;4.03;;;7.10;59.20;;;6.05;48.64;99155.50;5168047;27;20405;-80
2021/04/23 01:57:23;;;;;;;9.32;4.18;;;7.10;58.90;;;6.13;48.52;99158.06;5167793;27;20415;-80
2021/04/23 01:59:49;;;;;;;11.73;3.77;;;7.20;58.90;;;6.15;48.65;99163.16;5169309;27;20416;-79
2021/04/23 02:02:17;;;;;;;13.23;3.70;;;7.30;59.00;;;6.08;49.06;99165.69;5166801;27;20409;-80
2021/04/23 02:04:48;;;;;;;8.43;3.67;;;7.20;58.90;;;5.95;49.46;99164.63;5167084;27;20460;-80
2021/04/23 02:07:16;;;;;;;12.73;3.88;;;7.10;59.10;;;5.72;49.48;99168.06;5167637;27;20465;-80
2021/04/23 02:09:43;;;;;;;13.38;4.00;;;6.90;59.50;;;5.77;48.57;99160.50;5173396;27;20441;-80
2021/04/23 02:12:11;;;;;;;10.53;3.37;;;6.90;58.90;;;5.87;47.98;99167.28;5177121;27;20513;-79
2021/04/23 02:14:39;;;;;;;9.82;3.60;;;6.90;58.30;;;6.02;47.78;99168.19;5177933;27;20396;-79
2021/04/23 02:17:07;;;;;;;10.65;3.90;;;7.00;58.00;;;6.10;47.53;99165.47;5176383;27;20430;-78
2021/04/23 02:19:33;;;;;;;11.23;3.78;;;7.10;57.70;;;6.05;47.53;99166.03;5174247;27;20397;-80
2021/04/23 02:22:00;;;;;;;10.60;3.70;;;7.20;57.50;;;5.79;48.55;99163.75;5151573;27;20413;-80
2021/04/23 02:24:26;;;;;;;12.02;4.22;;;7.00;58.20;;;5.63;48.94;99161.28;5167540;27;20416;-79
2021/04/23 02:26:52;;;;;;;9.40;3.60;;;6.80;59.00;;;5.60;48.90;99171.28;5166020;27;20798;-80
2021/04/23 02:29:20;;;;;;;13.15;4.20;;;6.70;58.90;;;5.64;48.63;99169.97;5166012;27;20837;-79
2021/04/23 02:31:50;;;;;;;10.20;3.60;;;6.70;58.80;;;5.55;48.99;99171.84;5165377;27;20408;-79
2021/04/23 02:34:20;;;;;;;13.93;3.80;;;6.70;59.00;;;5.57;49.17;99169.00;5165961;27;20397;-79
2021/04/23 02:36:46;;;;;;;11.50;3.50;;;6.70;59.20;;;5.47;49.95;99178.94;5164789;27;20412;-80
2021/04/23 02:39:19;;;;;;;14.67;3.90;;;6.70;59.80;;;5.41;49.95;99169.97;5164151;27;20925;-80
2021/04/23 02:41:49;;;;;;;12.93;3.90;;;6.60;60.00;;;5.24;50.39;99174.50;5162917;27;20409;-78
2021/04/23 02:44:16;;;;;;;8.75;3.83;;;6.40;60.60;;;5.13;50.84;99172.25;5146853;27;20469;-79
2021/04/23 02:46:43;;;;;;;14.10;4.57;;;6.30;61.20;;;5.17;51.03;99183.22;5165633;27;20425;-81
2021/04/23 02:49:11;;;;;;;13.40;3.55;;;6.30;61.40;;;5.26;50.18;99182.19;5164205;27;20423;-79
2021/04/23 02:51:44;;;;;;;11.88;3.90;;;6.40;60.90;;;5.27;50.07;99189.88;5165131;27;20422;-80
2021/04/23 02:54:11;;;;;;;16.25;5.03;;;6.40;60.50;;;5.34;50.03;99188.19;5165792;27;20768;-79
2021/04/23 02:56:40;;;;;;;15.23;4.38;;;6.40;60.50;;;5.40;49.98;99186.69;5167947;27;20723;-78
2021/04/23 02:59:07;;;;;;;15.98;4.13;;;6.50;60.40;;;5.39;50.29;99191.13;5174738;27;20412;-80
2021/04/23 03:01:37;;;;;;;14.77;4.65;;;6.50;60.60;;;5.30;50.49;99186.09;5166500;27;20414;-79
2021/04/23 03:04:05;;;;;;;17.63;4.78;;;6.50;60.90;;;5.26;50.94;99187.44;5145870;27;20409;-79
2021/04/23 03:06:33;;;;;;;12.02;4.78;;;6.40;61.50;;;5.13;51.73;99189.78;5164226;27;20499;-81
2021/04/23 03:08:59;;;;;;;13.03;4.63;;;6.30;62.30;;;5.01;52.26;99186.75;5165083;27;20452;-80
2021/04/23 03:11:27;;;;;;;10.03;4.37;;;6.20;62.80;;;5.03;51.90;99192.66;5167186;27;20500;-79
2021/04/23 03:13:58;;;;;;;12.70;4.00;;;6.20;63.00;;;5.10;51.95;99187.53;5166301;27;20492;-80
2021/04/23 03:16:24;;;;;;;16.13;4.40;;;6.20;62.90;;;5.07;52.00;99183.44;5165225;27;20467;-80
2021/04/23 03:18:53;;;;;;;15.75;4.20;;;6.20;62.90;;;5.12;51.87;99190.78;5146611;27;20420;-80
2021/04/23 03:21:22;;;;;;;18.13;4.93;;;6.20;63.00;;;5.13;52.17;99197.66;5164524;27;20476;-79
2021/04/23 03:23:49;;;;;;;14.23;4.35;;;6.30;63.10;;;5.17;52.12;99199.78;5145705;27;20413;-79
2021/04/23 03:26:19;;;;;;;14.48;4.88;;;6.30;63.10;;;5.22;52.09;99194.84;5164084;27;20424;-79
2021/04/23 03:28:47;;;;;;;15.45;5.25;;;6.30;64.00;;;5.22;52.43;99194.84;5165203;27;20408;-79
2021/04/23 03:31:15;;;;;;;18.33;5.03;;;6.30;63.30;;;5.13;52.36;99197.66;5165120;27;20414;-79
2021/04/23 03:33:43;;;;;;;15.77;5.25;;;6.30;63.40;;;4.90;53.10;99195.81;5165340;27;20404;-79
2021/04/23 03:36:12;;;;;;;15.23;4.43;;;6.20;64.20;;;4.78;53.97;99188.47;5165472;27;20411;-79
2021/04/23 03:38:41;;;;;;;14.18;5.85;;;6.00;65.10;;;4.84;53.50;99196.50;5165878;27;20415;-79
2021/04/23 03:41:13;;;;;;;10.10;4.57;;;6.00;65.00;;;4.84;53.32;99198.28;5163286;27;20606;-79
2021/04/23 03:43:39;;;;;;;17.05;4.72;;;6.00;64.70;;;4.88;53.08;99210.09;5164146;27;20404;-79
2021/04/23 03:46:06;;;;;;;18.95;5.28;;;6.00;64.50;;;5.03;52.36;99203.16;5163640;27;20401;-79
2021/04/23 03:48:35;;;;;;;15.43;5.13;;;6.10;64.00;;;5.01;52.41;99205.13;5163138;27;20539;-79
2021/04/23 03:51:03;;;;;;;16.05;4.60;;;6.10;63.60;;;4.90;53.08;99202.84;5163410;27;20397;-79
2021/04/23 03:53:32;;;;;;;15.95;5.43;;;6.10;64.10;;;5.05;52.81;99209.84;5163615;27;20862;-79
2021/04/23 03:55:59;;;;;;;13.80;5.10;;;6.10;64.30;;;5.17;52.62;99209.47;5164106;27;20421;-80
2021/04/23 03:58:28;;;;;;;20.15;4.78;;;6.20;64.20;;;5.23;52.48;99212.22;5162524;27;20401;-79
2021/04/23 04:00:58;;;;;;;28.37;5.60;;;6.30;63.90;;;5.24;52.31;99213.06;5162974;27;20747;-80
2021/04/23 04:03:26;;;;;;;25.92;5.28;;;6.40;64.00;;;5.05;53.21;99214.28;5162953;27;20430;-79
2021/04/23 04:05:53;;;;;;;21.13;4.85;;;6.30;64.30;;;4.88;53.56;99218.78;5162773;27;20420;-79
2021/04/23 04:08:20;;;;;;;19.30;5.15;;;6.10;65.10;;;4.84;54.00;99216.66;5162759;27;20852;-79
2021/04/23 04:10:48;;;;;;;17.60;5.55;;;6.00;65.60;;;4.80;54.08;99213.56;5163783;27;20698;-79
2021/04/23 04:13:15;;;;;;;15.63;5.30;;;6.00;65.70;;;4.82;53.95;99219.44;5166507;27;20405;-79
2021/04/23 04:15:44;;;;;;;16.33;5.10;;;6.00;65.70;;;4.89;54.08;99223.03;5158290;27;20408;-78
2021/04/23 04:18:12;;;;;;;14.85;4.60;;;6.00;65.70;;;4.92;53.81;99225.31;5158829;27;20428;-78
2021/04/23 04:20:41;;;;;;;14.52;5.03;;;6.00;65.60;;;4.97;53.51;99233.50;5176676;27;20384;-78
2021/04/23 04:23:14;;;;;;;11.97;4.50;;;6.10;65.40;;;4.99;53.91;99231.53;5163868;27;20405;-78
2021/04/23 04:25:43;;;;;;;14.27;4.80;;;6.10;65.40;;;4.85;54.14;99232.22;5162786;27;20479;-78
2021/04/23 04:28:11;;;;;;;10.88;4.70;;;6.00;65.60;;;4.66;54.95;99230.00;5162174;27;20431;-78
2021/04/23 04:30:38;;;;;;;14.93;5.40;;;5.90;66.40;;;4.61;55.30;99229.66;5162179;27;20401;-79
2021/04/23 04:33:08;;;;;;;14.85;4.75;;;5.80;67.10;;;4.64;55.19;99231.97;5163369;27;20491;-79
2021/04/23 04:35:36;;;;;;;15.53;4.77;;;5.80;67.20;;;4.60;55.40;99228.84;5162468;27;20405;-80
2021/04/23 04:38:07;;;;;;;16.98;5.88;;;5.80;68.00;;;4.72;55.30;99237.19;5166125;27;20430;-79
2021/04/23 04:40:35;;;;;;;19.65;5.20;;;5.80;67.20;;;4.73;55.27;99249.34;5156596;27;20412;-78
2021/04/23 04:43:02;;;;;;;20.80;5.65;;;5.80;67.50;;;4.68;55.73;99244.56;5168590;27;20401;-78
2021/04/23 04:45:29;;;;;;;15.82;4.78;;;5.80;67.90;;;4.67;56.07;99245.56;5148963;27;20430;-78
2021/04/23 04:47:57;;;;;;;14.57;5.70;;;5.80;68.00;;;4.83;55.23;99246.50;5170836;27;20440;-79
2021/04/23 04:50:27;;;;;;;12.45;4.55;;;5.90;67.80;;;4.84;55.50;99245.50;5172538;27;20525;-79
2021/04/23 04:52:54;;;;;;;14.50;4.65;;;6.00;67.50;;;4.87;55.14;99251.25;5174928;27;20415;-79
2021/04/23 04:55:25;;;;;;;15.63;4.82;;;6.00;67.50;;;5.02;54.80;99254.81;5176049;27;20408;-78
2021/04/23 04:57:52;;;;;;;10.45;4.95;;;6.10;67.20;;;5.11;54.71;99255.59;5176071;27;20436;-78
2021/04/23 05:00:20;;;;;;;15.68;5.22;;;6.20;67.00;;;5.26;54.37;99256.50;5154877;27;20397;-82
2021/04/23 05:02:47;;;;;;;17.73;4.97;;;6.30;66.60;;;5.34;53.71;99247.75;5151081;27;20448;-81
2021/04/23 05:05:16;;;;;;;18.13;5.28;;;6.40;65.90;;;5.52;53.23;99250.97;5151434;27;20409;-80
2021/04/23 05:07:43;;;;;;;17.58;5.95;;;6.50;65.40;;;5.57;52.79;99253.88;5149727;27;20417;-79
2021/04/23 05:10:12;;;;;;;19.85;5.82;;;6.70;64.70;;;5.54;52.05;99256.88;5169343;27;20423;-80
2021/04/23 05:12:38;;;;;;;17.15;5.97;;;6.60;63.60;;;5.47;52.38;99258.56;5164727;27;20480;-79
2021/04/23 05:15:08;;;;;;;17.63;4.97;;;6.60;63.50;;;5.55;52.15;99260.31;5166018;27;20405;-79
2021/04/23 05:17:36;;;;;;;18.17;5.13;;;6.60;63.60;;;5.56;51.98;99256.69;5163644;27;20408;-81
2021/04/23 05:20:05;;;;;;;14.20;5.20;;;6.60;63.50;;;5.60;51.95;99268.50;5162910;27;20799;-81
2021/04/23 05:22:32;;;;;;;15.23;5.47;;;6.70;63.50;;;5.61;51.99;99267.50;5162111;27;20437;-80
2021/04/23 05:25:00;;;;;;;13.87;5.60;;;6.70;63.20;;;5.66;52.03;99268.59;5145522;27;20408;-81
2021/04/23 05:27:27;;;;;;;19.98;5.75;;;6.70;64.20;;;5.69;51.93;99267.47;5163132;27;20413;-79
2021/04/23 05:29:54;;;;;;;24.45;5.53;;;6.80;63.20;;;5.75;51.68;99277.25;5142007;27;20774;-80
2021/04/23 05:32:20;;;;;;;16.45;5.35;;;6.80;62.90;;;5.77;51.60;99281.38;5159825;27;20401;-81
2021/04/23 05:34:47;;;;;;;19.13;5.90;;;6.80;62.80;;;5.83;51.34;99280.66;5143118;27;20798;-79
2021/04/23 05:37:14;;;;;;;11.10;5.20;;;6.90;62.60;;;5.91;51.12;99295.59;5143419;27;20475;-80
2021/04/23 05:39:43;;;;;;;19.70;7.20;;;7.00;62.50;;;5.93;51.06;99300.69;5160379;27;20401;-80
2021/04/23 05:42:10;;;;;;;20.92;6.57;;;7.00;62.10;;;6.03;50.72;99293.38;5143416;27;20428;-79
2021/04/23 05:44:36;;;;;;;21.98;6.35;;;7.10;62.10;;;6.14;50.36;99298.22;5161457;27;20507;-79
2021/04/23 05:47:04;;;;;;;15.27;6.05;;;7.20;61.60;;;6.10;50.24;99291.66;5162740;27;20436;-78
2021/04/23 05:49:31;;;;;;;17.58;5.72;;;7.20;61.10;;;6.12;50.05;99295.78;5164786;27;20512;-80
2021/04/23 05:51:57;;;;;;;18.55;6.85;;;7.20;60.90;;;6.17;50.10;99300.50;5165779;27;20412;-79
2021/04/23 05:54:24;;;;;;;15.25;5.75;;;7.20;61.10;;;6.19;49.70;99312.47;5164208;27;20834;-79
2021/04/23 05:56:50;;;;;;;21.23;5.75;;;7.20;60.60;;;6.11;49.88;99298.56;5165324;27;20400;-80
2021/04/23 05:59:18;;;;;;;21.40;5.95;;;7.20;60.50;;;6.06;49.90;99300.91;5164182;27;20396;-80
2021/04/23 06:01:44;;;;;;;14.60;5.75;;;7.10;60.80;;;6.23;49.86;99305.06;5167751;27;20667;-81
2021/04/23 06:04:11;;;;;;;17.17;6.35;;;7.20;61.00;;;6.23;49.70;99299.81;5151282;27;20433;-81
2021/04/23 06:06:37;;;;;;;21.33;6.13;;;7.30;60.40;;;6.35;49.71;99308.09;5168456;27;20397;-80
2021/04/23 06:09:05;;;;;;;19.88;6.47;;;7.40;60.60;;;6.46;49.60;99312.94;5168793;27;20408;-79
2021/04/23 06:11:32;;;;;;;21.88;7.00;;;7.50;60.60;;;6.50;49.50;99312.41;5167013;27;20408;-81
2021/04/23 06:13:59;;;;;;;25.48;5.63;;;7.50;60.30;;;6.39;49.53;99312.81;5165395;27;20401;-80
2021/04/23 06:16:26;;;;;;;22.27;6.67;;;7.40;60.00;;;6.49;49.74;99309.94;5165171;27;20404;-79
2021/04/23 06:18:52;;;;;;;25.13;6.77;;;7.50;60.60;;;6.49;49.70;99316.03;5166403;27;20401;-79
2021/04/23 06:21:19;;;;;;;21.08;6.07;;;7.50;60.40;;;6.62;49.48;99318.03;5165623;27;20404;-79
2021/04/23 06:23:46;;;;;;;18.67;6.10;;;7.60;60.60;;;6.58;50.31;99322.03;5166213;27;20413;-80
2021/04/23 06:26:12;;;;;;;31.73;8.15;;;7.60;61.20;;;6.57;50.68;99320.41;5147958;27;20803;-79
2021/04/23 06:28:39;;;;;;;26.20;7.35;;;7.60;61.40;;;6.69;50.55;99320.81;5166771;27;20877;-79
2021/04/23 06:31:07;;;;;;;31.13;8.80;;;7.70;61.80;;;6.78;50.45;99320.53;5166259;27;20795;-80
2021/04/23 06:33:38;;;;;;;28.10;7.72;;;7.80;61.50;;;6.84;50.43;99324.28;5167551;27;20405;-80
2021/04/23 06:36:06;;;;;;;37.92;9.77;;;7.80;61.60;;;6.97;50.24;99320.03;5173173;27;20432;-79
2021/04/23 06:38:33;;;;;;;31.07;9.83;;;8.00;61.40;;;6.91;50.07;99327.81;5177948;27;20416;-80
2021/04/23 06:41:00;;;;;;;22.45;7.35;;;8.00;60.90;;;6.91;49.90;99325.19;5176716;27;20397;-80
2021/04/23 06:43:26;;;;;;;23.98;7.18;;;7.90;61.30;;;6.92;49.08;99326.81;5170242;27;20413;-80
2021/04/23 06:45:53;;;;;;;35.85;11.88;;;8.00;60.40;;;7.10;49.99;99335.19;5168080;27;20397;-79
2021/04/23 06:48:20;;;;;;;26.05;7.90;;;8.10;61.00;;;7.21;50.41;99333.94;5149578;27;20421;-78
2021/04/23 06:50:48;;;;;;;26.05;7.88;;;8.20;61.40;;;7.32;49.53;99336.09;5166029;27;20415;-79
2021/04/23 06:53:15;;;;;;;33.72;8.75;;;8.30;60.60;;;7.35;49.15;99339.19;5167138;27;20408;-79
2021/04/23 06:55:43;;;;;;;34.70;10.43;;;8.40;59.90;;;7.52;49.01;99339.00;5166683;27;20426;-79
2021/04/23 06:58:10;;;;;;;32.80;8.30;;;8.50;59.90;;;7.66;48.65;99340.81;5165030;27;20409;-79
2021/04/23 07:00:38;;;;;;;23.85;8.07;;;8.60;59.70;;;7.66;48.21;99333.72;5149181;27;20433;-79
2021/04/23 07:03:10;;;;;;;27.90;8.15;;;8.70;59.00;;;7.73;48.16;99331.16;5165804;27;20408;-80
2021/04/23 07:05:36;;;;;;;32.80;8.60;;;8.70;58.90;;;7.68;48.09;99334.31;5168202;27;20405;-80
2021/04/23 07:08:04;;;;;;;24.58;7.82;;;8.70;58.60;;;7.81;47.82;99336.31;5150682;27;20471;-79
2021/04/23 07:10:31;;;;;;;26.02;8.25;;;8.70;58.60;;;7.96;47.20;99341.56;5168045;27;20417;-80
2021/04/23 07:12:58;;;;;;;30.33;8.05;;;8.90;58.30;;;8.05;46.78;99337.78;5149513;27;20507;-80
2021/04/23 07:15:28;;;;;;;30.15;8.07;;;9.10;57.40;;;8.00;46.58;99350.72;5168923;27;20674;-79
2021/04/23 07:17:55;;;;;;;27.40;7.17;;;9.00;57.00;;;8.09;46.48;99341.69;5167715;27;20488;-79
2021/04/23 07:20:23;;;;;;;20.13;6.90;;;9.00;57.00;;;8.27;44.97;99334.16;5167096;27;20409;-79
2021/04/23 07:22:50;;;;;;;24.07;6.00;;;9.20;55.80;;;8.21;44.61;99334.09;5150314;27;20479;-81
2021/04/23 07:25:18;;;;;;;23.40;7.10;;;9.20;54.80;;;8.39;45.01;99339.78;5167151;27;20710;-79
2021/04/23 07:27:45;;;;;;;26.35;7.43;;;9.30;55.50;;;8.64;44.57;99340.22;5167455;27;20417;-79
2021/04/23 07:30:16;;;;;;;24.60;6.93;;;9.50;55.00;;;8.76;43.63;99341.31;5167872;27;20608;-79
2021/04/23 07:32:43;;;;;;;28.50;7.80;;;9.70;54.20;;;8.88;43.12;99343.22;5167386;27;20490;-79
2021/04/23 07:35:10;;;;;;;28.75;5.70;;;9.80;53.50;;;8.78;42.45;99332.22;5148807;27;20409;-80
2021/04/23 07:37:40;;;;;;;20.60;6.20;;;9.80;52.40;;;8.82;42.31;99344.00;5168562;27;20434;-80
2021/04/23 07:40:10;;;;;;;27.60;6.60;;;9.80;52.30;;;8.95;42.44;99339.84;5163157;27;20542;-80
2021/04/23 07:42:39;;;;;;;23.27;6.18;;;9.90;53.30;;;9.09;41.96;99345.03;5165302;27;20505;-81
2021/04/23 07:45:08;;;;;;;21.45;6.00;;;10.00;52.20;;;8.99;41.92;99339.25;5165548;27;20411;-80
2021/04/23 07:47:35;;;;;;;21.85;5.82;;;10.00;51.80;;;8.99;41.82;99341.09;5146817;27;20504;-80
2021/04/23 07:50:04;;;;;;;20.05;5.93;;;10.00;51.50;;;8.99;41.61;99339.25;5164336;27;20424;-79
2021/04/23 07:52:31;;;;;;;19.13;5.60;;;10.00;51.50;;;9.30;41.13;99338.84;5164507;27;20431;-79
2021/04/23 07:55:01;;;;;;;27.27;8.13;;;10.10;51.60;;;9.42;41.15;99345.19;5169529;27;20425;-78
2021/04/23 07:57:27;;;;;;;25.67;7.93;;;10.30;51.10;;;9.41;40.66;99338.28;5171606;27;20397;-79
2021/04/23 07:59:55;;;;;;;19.27;6.22;;;10.40;50.40;;;9.62;40.21;99340.81;5172527;27;20548;-78
2021/04/23 08:02:22;;;;;;;20.17;6.60;;;10.50;50.10;;;9.52;40.72;99337.75;5173878;27;20683;-78
2021/04/23 08:04:49;;;;;;;18.93;5.20;;;10.50;50.20;;;9.29;40.63;99338.03;5166176;27;20468;-79
2021/04/23 08:07:16;;;;;;;17.83;5.70;;;10.30;50.00;;;9.44;40.97;99339.72;5166386;27;20481;-78
2021/04/23 08:09:42;;;;;;;25.58;6.05;;;10.30;50.50;;;9.46;40.77;99335.88;5166923;27;20448;-79
2021/04/23 08:12:09;;;;;;;28.50;6.07;;;10.40;50.30;;;9.61;40.25;99339.22;5165708;27;20427;-79
2021/04/23 08:14:36;;;;;;;30.42;6.53;;;10.50;49.90;;;9.59;40.38;99343.88;5163988;27;20408;-79
2021/04/23 08:17:04;;;;;;;19.23;5.97;;;10.50;49.90;;;9.71;40.25;99346.75;5161125;27;20442;-79
2021/04/23 08:19:31;;;;;;;22.15;6.85;;;10.60;49.90;;;9.70;40.05;99337.19;5162506;27;20401;-78
2021/04/23 08:21:57;;;;;;;21.00;5.70;;;10.60;49.50;;;9.99;39.46;99336.09;5161192;27;20405;-78
2021/04/23 08:24:24;;;;;;;20.15;7.10;;;10.80;49.30;;;10.10;39.44;99332.84;5162822;27;20405;-79
2021/04/23 08:26:50;;;;;;;18.60;5.93;;;11.00;49.00;;;10.10;38.53;99338.97;5161385;27;20814;-79
2021/04/23 08:29:17;;;;;;;22.70;6.18;;;11.00;47.60;;;10.15;38.13;99338.34;5161877;27;20413;-79
2021/04/23 08:31:44;;;;;;;24.60;7.03;;;11.00;47.50;;;10.18;38.27;99340.63;5163453;27;20499;-79
2021/04/23 08:34:12;;;;;;;25.10;6.67;;;11.10;47.60;;;10.39;38.29;99339.66;5144002;27;20621;-80
2021/04/23 08:36:39;;;;;;;16.08;5.93;;;11.20;47.80;;;10.51;37.89;99329.28;5163897;27;20433;-79
2021/04/23 08:39:08;;;;;;;22.20;6.85;;;11.40;47.20;;;10.83;37.51;99339.06;5163565;27;20432;-80
2021/04/23 08:41:36;;;;;;;19.73;7.95;;;11.60;46.90;;;10.88;37.61;99333.97;5161738;27;20440;-79
2021/04/23 08:44:04;;;;;;;20.50;6.95;;;11.70;46.50;;;11.14;36.38;99327.81;5163396;27;20441;-80
2021/04/23 08:46:32;;;;;;;27.40;7.97;;;11.90;45.70;;;10.93;36.81;99336.81;5166110;27;20480;-79
2021/04/23 08:49:00;;;;;;;20.52;7.43;;;11.90;45.40;;;10.68;37.31;99333.97;5165254;27;20518;-79
2021/04/23 08:51:28;;;;;;;20.90;6.85;;;11.60;45.70;;;10.62;37.54;99332.13;5166266;27;20464;-80
2021/04/23 08:53:59;;;;;;;23.40;7.40;;;11.50;46.20;;;10.70;37.90;99325.81;5147843;27;20511;-80
2021/04/23 08:56:26;;;;;;;23.97;8.00;;;11.60;46.90;;;10.59;37.58;99337.84;5148856;27;20513;-78
2021/04/23 08:58:55;;;;;;;22.70;7.75;;;11.50;46.60;;;10.68;37.66;99333.16;5166685;27;20401;-79
2021/04/23 09:01:22;;;;;;;21.50;7.20;;;11.60;46.70;;;10.88;37.17;99335.81;5171778;27;20468;-80
2021/04/23 09:03:49;;;;;;;20.10;6.68;;;11.70;46.30;;;10.94;36.73;99334.97;5170627;27;20484;-79
2021/04/23 09:06:24;;;;;;;20.67;7.05;;;11.90;45.50;;;11.01;36.37;99338.44;5167644;27;20401;-78
2021/04/23 09:09:13;;;;;;;19.58;6.68;;;11.90;45.10;;;10.90;36.77;99329.28;5165576;27;20480;-80
2021/04/23 09:11:43;;;;;;;33.63;7.00;;;11.80;45.00;;;11.04;36.43;99335.38;5162177;27;20556;-79
2021/04/23 09:14:12;;;;;;;20.55;7.55;;;11.90;45.50;;;11.29;36.97;99333.69;5164414;27;20424;-79
2021/04/23 09:17:03;;;;;;;26.55;7.90;;;12.10;45.80;;;11.58;36.23;99329.72;5147561;27;20417;-78
2021/04/23 09:19:42;;;;;;;23.92;7.93;;;12.40;45.40;;;11.38;36.56;99327.16;5139023;27;20475;-80
2021/04/23 09:22:21;;;;;;;23.02;6.82;;;12.30;44.80;;;11.62;36.31;99331.78;5149292;27;20587;-79
2021/04/23 09:25:01;;;;;;;22.67;7.15;;;12.50;45.40;;;11.68;35.99;99334.59;5169262;27;20459;-78
2021/04/23 09:27:31;;;;;;;22.27;7.33;;;12.60;44.50;;;11.79;35.89;99332.16;5153976;27;20420;-79
2021/04/23 09:30:01;;;;;;;21.40;7.47;;;12.70;44.60;;;11.80;35.77;99333.75;5169421;27;20411;-79
2021/04/23 09:32:30;;;;;;;24.17;7.13;;;12.70;44.40;;;11.97;35.87;99329.59;5167941;27;20480;-78
2021/04/23 09:34:59;;;;;;;32.37;8.87;;;12.80;44.50;;;11.99;35.85;99326.72;5170395;27;20445;-79
2021/04/23 09:37:29;;;;;;;26.30;7.78;;;12.80;44.40;;;11.91;35.59;99326.97;5172477;27;20407;-80
2021/04/23 09:40:11;;;;;;;20.75;6.72;;;12.80;43.70;;;12.03;35.35;99323.44;5172231;27;20408;-79
2021/04/23 09:42:47;;;;;;;24.43;7.67;;;12.90;43.60;;;12.18;35.41;99330.31;5153555;27;20481;-79
2021/04/23 09:45:15;;;;;;;21.65;7.43;;;13.00;44.00;;;12.18;35.32;99327.66;5171185;27;20465;-80
2021/04/23 09:47:42;;;;;;;25.77;7.38;;;13.00;43.50;;;12.37;34.88;99332.03;5168562;27;20412;-80
2021/04/23 09:50:10;;;;;;;24.45;7.53;;;13.20;43.50;;;12.01;35.21;99330.00;5168358;27;20496;-79
2021/04/23 09:52:51;;;;;;;22.40;6.75;;;12.90;43.20;;;12.29;35.44;99327.78;5170304;27;20401;-79
2021/04/23 09:55:21;;;;;;;22.02;7.30;;;13.10;44.10;;;12.15;35.36;99333.38;5167283;27;20423;-79
2021/04/23 09:57:51;;;;;;;18.73;6.80;;;13.10;43.50;;;11.99;35.70;99334.69;5164557;27;20416;-80
2021/04/23 10:00:21;;;;;;;21.67;7.13;;;12.90;43.90;;;12.00;35.53;99328.38;5163598;27;20476;-79
2021/04/23 10:02:51;;;;;;;30.58;6.80;;;12.90;43.80;;;11.88;35.83;99325.53;5163332;27;20455;-79
2021/04/23 10:05:33;;;;;;;23.65;6.97;;;12.70;44.00;;;11.90;35.07;99328.00;5161540;27;20484;-79
2021/04/23 10:08:00;;;;;;;22.40;6.53;;;12.80;43.30;;;12.12;35.25;99321.34;5162614;27;20405;-80
2021/04/23 10:10:28;;;;;;;21.23;6.63;;;12.90;43.90;;;12.37;34.91;99324.06;5163157;27;20416;-80
2021/04/23 10:12:58;;;;;;;24.88;7.60;;;13.20;43.40;;;12.50;34.20;99310.66;5165507;27;20515;-80
2021/04/23 10:15:27;;;;;;;25.13;7.13;;;13.30;42.60;;;12.39;34.38;99322.00;5166210;27;20806;-80
2021/04/23 10:17:56;;;;;;;24.33;7.22;;;13.30;42.50;;;12.36;34.65;99333.03;5151199;27;20413;-80
2021/04/23 10:20:25;;;;;;;41.15;7.88;;;13.20;42.80;;;12.54;34.17;99324.34;5169563;27;20440;-79
2021/04/23 10:22:53;;;;;;;16.73;7.18;;;13.30;42.50;;;12.69;34.05;99323.00;5171008;27;20408;-78
2021/04/23 10:25:20;;;;;;;31.20;11.13;;;13.50;42.10;;;12.80;33.53;99318.81;5168383;27;20411;-79
2021/04/23 10:27:49;;;;;;;23.03;6.57;;;13.60;41.90;;;12.81;33.15;99320.44;5165583;27;20496;-80